Предлагаем Вашему вниманию английскую версию страницы: AUTOTAF.ME UUWK - aviation weather forecast Kudinovo

AUTOTAF UUWK - авиапрогноз Кудиново

Сегодня рассвет 03:47 UTC, восход солнца 04:24 UTC,
местный полдень 09:47 UTC, заход солнца 15:10 UTC,
наступление темноты 15:46 UTC.

Краткий прогноз UUWK на 9 часов

AUTOTAF.ME UUWK 010500Z 0106/0115 VRB02MPS 3000 BR BKN004    
  FM010900 24003MPS 9999 BKN013 
  FM011200 26004MPS 7000 BR BKN013 
  FM011500 26004MPS 5000 BR OVC005

Детальный прогноз UUWK на 24 часа

AUTOTAF.ME UUWK 010500Z 0106/0206 VRB02MPS 3000 BR BKN004 TX01/0118Z TNM05/0106Z  
  FM010900 24003MPS 9999 BKN013 
  FM011200 26004MPS 7000 BR BKN013 
  FM011500 26004MPS 5000 BR OVC005 
  BECMG 0116/0118 3000   
  BECMG 0122/0200 5000  
  BECMG 0201/0203 28004MPS

Подробный табличный прогноз

Время (UTC) miniAUTOTAF на 3 ч WX FZLVL
M AGL
ICE TURB Т
(°С)
Тd
(°С)
f(%) QNH
(гПа)
WIND/T
03 VRB02MPS 1000 BR SCT003 BR SFC FBL FL20/FL50 -4 -5 93 1023 ...
06 VRB02MPS 3000 BR BKN004 BR SFC MOD FL10/FL20 -5 -7 91 1024 ...
09 24003MPS 9999 BKN013 SFC MOD FL10/FL20 MOD SFC/FL20 -0 -2 90 1024 ...
12 26004MPS 7000 BR BKN013 BR 80 FBL FL20/FL40 0 -1 88 1023 ...
15 26004MPS 5000 BR OVC005 BR 140 MOD FL90/FL170 MOD SFC/FL30 0 -1 93 1020 ...
18 27005G12MPS 3000 BR OVC005 BR 150 MOD FL150/FL170 1 -1 92 1019 ...
21 27005G12MPS 3000 BR OVC005 BR 240 MOD FL150/FL170 1 -1 91 1016 ...
02.03.2021
00 27005G13MPS 5000 BR OVC004 BR 210 FBL FL20/FL170 MOD SFC/FL30 1 -0 92 1014 ...
03 28004MPS 5000 BR OVC004 BR 270 FBL FL20/FL190 1 0 94 1011 ...
06 30004MPS 5000 BR OVC005 BR 240 MOD FL110/FL120 MOD SFC/FL30 1 0 94 1012 ...
09 31007G12MPS 9999 BKN010 210 MOD FL120/FL130 MOD SFC/FL30 1 -1 92 1010 ...
12 30004MPS 4500 BR BKN010 BR 100 FBL FL20/FL150 MOD FL150/FL160 1 -1 90 1010 ...
15 31004MPS 9999 VCSH BKN010CB TEMPO 1500 VCSH 120 MOD FL20/FL50 MOD SFC/FL90 0 -1 90 1010 ...
18 32005G13MPS 9999 BKN010 SFC FBL FL20/FL40 MOD SFC/FL30 0 -2 88 1012 ...
21 32004MPS 9999 BKN011 SFC MOD FL20/FL30 MOD SFC/FL40 -0 -2 88 1013 ...


Широта 55.02335°, долгота 36.24422°, высота 192 м абс.
Средняя высота рельефа местности 191 м абс.
Прогнозы обновляются четыре раза в сутки: в 02, 08, 14, 20 ч всемирного времени.


Выбрать прогноз по другой модели Кудиново
Онлайн-сводка гроз по Кудиново (для РФ и ближнего зарубежья)
Карта фактических гроз в окрестностях Кудиново
Динамические прогностические карты (ventusky.com)
Прогностическая карта высоты нижней границы облаков по Кудиново (windy.com)
Выбрать другой город

Прогноз предназначен для личного научно-познавательного использования частными лицами
и не предназначен для принятия важных решений и выполнения реальных полётов воздушных судов

При копировании или ином использовании любых материалов данного сайта ссылка на © meteocenter.asia обязательна.

0.66/1